sensor_id;sensor_type;location;lat;lon;timestamp;temperature;humidity
22436;DHT22;11385;50.822;4.324;2023-08-01T00:01:49;17.10;99.90
22436;DHT22;11385;50.822;4.324;2023-08-01T00:04:15;17.00;99.90
22436;DHT22;11385;50.822;4.324;2023-08-01T00:06:42;17.00;99.90
22436;DHT22;11385;50.822;4.324;2023-08-01T00:09:09;16.90;99.90
22436;DHT22;11385;50.822;4.324;2023-08-01T00:11:35;17.00;99.90
22436;DHT22;11385;50.822;4.324;2023-08-01T00:14:02;17.00;99.90
22436;DHT22;11385;50.822;4.324;2023-08-01T00:16:28;16.90;99.90
22436;DHT22;11385;50.822;4.324;2023-08-01T00:18:55;16.90;99.90
22436;DHT22;11385;50.822;4.324;2023-08-01T00:21:22;16.90;99.90
22436;DHT22;11385;50.822;4.324;2023-08-01T00:23:48;17.00;99.90
22436;DHT22;11385;50.822;4.324;2023-08-01T00:26:15;17.10;99.90
22436;DHT22;11385;50.822;4.324;2023-08-01T00:28:42;17.10;99.90
22436;DHT22;11385;50.822;4.324;2023-08-01T00:31:08;17.10;99.90
22436;DHT22;11385;50.822;4.324;2023-08-01T00:33:35;16.90;99.90
22436;DHT22;11385;50.822;4.324;2023-08-01T00:36:03;16.90;99.90
22436;DHT22;11385;50.822;4.324;2023-08-01T00:38:31;16.80;99.90
22436;DHT22;11385;50.822;4.324;2023-08-01T00:40:58;16.80;99.90
22436;DHT22;11385;50.822;4.324;2023-08-01T00:43:25;16.90;99.90
22436;DHT22;11385;50.822;4.324;2023-08-01T00:45:52;16.90;99.90
22436;DHT22;11385;50.822;4.324;2023-08-01T00:48:20;16.90;99.90
22436;DHT22;11385;50.822;4.324;2023-08-01T00:50:47;16.80;99.90
22436;DHT22;11385;50.822;4.324;2023-08-01T00:53:14;16.90;99.90
22436;DHT22;11385;50.822;4.324;2023-08-01T00:55:41;16.90;99.90
22436;DHT22;11385;50.822;4.324;2023-08-01T00:58:07;16.90;99.90
22436;DHT22;11385;50.822;4.324;2023-08-01T01:00:34;16.90;99.90
22436;DHT22;11385;50.822;4.324;2023-08-01T01:03:01;16.80;99.90
22436;DHT22;11385;50.822;4.324;2023-08-01T01:05:31;16.80;99.90
22436;DHT22;11385;50.822;4.324;2023-08-01T01:07:59;16.70;99.90
22436;DHT22;11385;50.822;4.324;2023-08-01T01:10:26;16.70;99.90
22436;DHT22;11385;50.822;4.324;2023-08-01T01:12:52;16.70;99.90
22436;DHT22;11385;50.822;4.324;2023-08-01T01:15:19;16.80;99.90
22436;DHT22;11385;50.822;4.324;2023-08-01T01:17:46;16.80;99.90
22436;DHT22;11385;50.822;4.324;2023-08-01T01:20:12;16.80;99.90
22436;DHT22;11385;50.822;4.324;2023-08-01T01:22:40;16.70;99.90
22436;DHT22;11385;50.822;4.324;2023-08-01T01:25:07;16.70;99.90
22436;DHT22;11385;50.822;4.324;2023-08-01T01:27:35;16.70;99.90
22436;DHT22;11385;50.822;4.324;2023-08-01T01:30:05;16.70;99.90
22436;DHT22;11385;50.822;4.324;2023-08-01T01:32:33;16.60;99.90
22436;DHT22;11385;50.822;4.324;2023-08-01T01:35:03;16.60;99.90
22436;DHT22;11385;50.822;4.324;2023-08-01T01:37:30;16.60;99.90
22436;DHT22;11385;50.822;4.324;2023-08-01T01:39:57;16.60;99.90
22436;DHT22;11385;50.822;4.324;2023-08-01T01:42:23;16.60;99.90
22436;DHT22;11385;50.822;4.324;2023-08-01T01:44:50;16.70;99.90
22436;DHT22;11385;50.822;4.324;2023-08-01T01:47:17;16.70;99.90
22436;DHT22;11385;50.822;4.324;2023-08-01T01:49:44;16.60;99.90
22436;DHT22;11385;50.822;4.324;2023-08-01T01:52:10;16.50;99.90
22436;DHT22;11385;50.822;4.324;2023-08-01T01:54:37;16.50;99.90
22436;DHT22;11385;50.822;4.324;2023-08-01T01:57:04;16.50;99.90
22436;DHT22;11385;50.822;4.324;2023-08-01T01:59:30;16.50;99.90
22436;DHT22;11385;50.822;4.324;2023-08-01T02:01:57;16.60;99.90
22436;DHT22;11385;50.822;4.324;2023-08-01T02:04:24;16.60;99.90
22436;DHT22;11385;50.822;4.324;2023-08-01T02:06:50;16.60;99.90
22436;DHT22;11385;50.822;4.324;2023-08-01T02:09:19;16.50;99.90
22436;DHT22;11385;50.822;4.324;2023-08-01T02:11:46;16.50;99.90
22436;DHT22;11385;50.822;4.324;2023-08-01T02:14:13;16.50;99.90
22436;DHT22;11385;50.822;4.324;2023-08-01T02:16:40;16.50;99.90
22436;DHT22;11385;50.822;4.324;2023-08-01T02:19:07;16.40;99.90
22436;DHT22;11385;50.822;4.324;2023-08-01T02:21:33;16.50;99.90
22436;DHT22;11385;50.822;4.324;2023-08-01T02:24:00;16.60;99.90
22436;DHT22;11385;50.822;4.324;2023-08-01T02:26:26;16.60;99.90
22436;DHT22;11385;50.822;4.324;2023-08-01T02:28:55;16.60;99.90
22436;DHT22;11385;50.822;4.324;2023-08-01T02:31:21;16.70;99.90
22436;DHT22;11385;50.822;4.324;2023-08-01T02:33:48;16.50;99.90
22436;DHT22;11385;50.822;4.324;2023-08-01T02:36:15;16.60;99.90
22436;DHT22;11385;50.822;4.324;2023-08-01T02:38:42;16.50;99.90
22436;DHT22;11385;50.822;4.324;2023-08-01T02:41:08;16.60;99.90
22436;DHT22;11385;50.822;4.324;2023-08-01T02:43:35;16.50;99.90
22436;DHT22;11385;50.822;4.324;2023-08-01T02:46:02;16.60;99.90
22436;DHT22;11385;50.822;4.324;2023-08-01T02:48:29;16.50;99.90
22436;DHT22;11385;50.822;4.324;2023-08-01T02:50:55;16.70;99.90
22436;DHT22;11385;50.822;4.324;2023-08-01T02:53:22;16.60;99.90
22436;DHT22;11385;50.822;4.324;2023-08-01T02:55:48;16.60;99.90
22436;DHT22;11385;50.822;4.324;2023-08-01T02:58:15;16.50;99.90
22436;DHT22;11385;50.822;4.324;2023-08-01T03:00:42;16.60;99.90
22436;DHT22;11385;50.822;4.324;2023-08-01T03:03:08;16.70;99.90
22436;DHT22;11385;50.822;4.324;2023-08-01T03:05:36;16.80;99.90
22436;DHT22;11385;50.822;4.324;2023-08-01T03:08:04;16.70;99.90
22436;DHT22;11385;50.822;4.324;2023-08-01T03:10:31;16.70;99.90
22436;DHT22;11385;50.822;4.324;2023-08-01T03:12:57;16.70;99.90
22436;DHT22;11385;50.822;4.324;2023-08-01T03:15:24;16.70;99.90
22436;DHT22;11385;50.822;4.324;2023-08-01T03:17:51;16.70;99.90
22436;DHT22;11385;50.822;4.324;2023-08-01T03:20:17;16.80;99.90
22436;DHT22;11385;50.822;4.324;2023-08-01T03:22:44;16.90;99.90
22436;DHT22;11385;50.822;4.324;2023-08-01T03:25:11;16.70;99.90
22436;DHT22;11385;50.822;4.324;2023-08-01T03:27:37;16.70;99.90
22436;DHT22;11385;50.822;4.324;2023-08-01T03:30:05;16.60;99.90
22436;DHT22;11385;50.822;4.324;2023-08-01T03:32:34;16.70;99.90
22436;DHT22;11385;50.822;4.324;2023-08-01T03:35:04;16.90;99.90
22436;DHT22;11385;50.822;4.324;2023-08-01T03:37:31;16.80;99.90
22436;DHT22;11385;50.822;4.324;2023-08-01T03:39:57;16.90;99.90
22436;DHT22;11385;50.822;4.324;2023-08-01T03:42:25;16.90;99.90
22436;DHT22;11385;50.822;4.324;2023-08-01T03:44:52;16.70;99.90
22436;DHT22;11385;50.822;4.324;2023-08-01T03:47:18;16.70;99.90
22436;DHT22;11385;50.822;4.324;2023-08-01T03:49:45;16.60;99.90
22436;DHT22;11385;50.822;4.324;2023-08-01T03:52:11;16.70;99.90
22436;DHT22;11385;50.822;4.324;2023-08-01T03:54:38;16.70;99.90
22436;DHT22;11385;50.822;4.324;2023-08-01T03:57:05;16.60;99.90
22436;DHT22;11385;50.822;4.324;2023-08-01T03:59:32;16.50;99.90
22436;DHT22;11385;50.822;4.324;2023-08-01T04:01:59;16.50;99.90
22436;DHT22;11385;50.822;4.324;2023-08-01T04:04:25;16.40;99.90
22436;DHT22;11385;50.822;4.324;2023-08-01T04:06:52;16.40;99.90
22436;DHT22;11385;50.822;4.324;2023-08-01T04:09:19;16.50;99.90
22436;DHT22;11385;50.822;4.324;2023-08-01T04:11:46;16.40;99.90
22436;DHT22;11385;50.822;4.324;2023-08-01T04:14:12;16.30;99.90
22436;DHT22;11385;50.822;4.324;2023-08-01T04:16:39;16.20;99.90
22436;DHT22;11385;50.822;4.324;2023-08-01T04:19:06;16.20;99.90
22436;DHT22;11385;50.822;4.324;2023-08-01T04:21:32;16.20;99.90
22436;DHT22;11385;50.822;4.324;2023-08-01T04:23:59;16.20;99.90
22436;DHT22;11385;50.822;4.324;2023-08-01T04:26:26;16.30;99.90
22436;DHT22;11385;50.822;4.324;2023-08-01T04:28:53;16.20;99.90
22436;DHT22;11385;50.822;4.324;2023-08-01T04:31:20;16.30;99.90
22436;DHT22;11385;50.822;4.324;2023-08-01T04:33:46;16.30;99.90
22436;DHT22;11385;50.822;4.324;2023-08-01T04:36:13;16.30;99.90
22436;DHT22;11385;50.822;4.324;2023-08-01T04:38:39;16.20;99.90
22436;DHT22;11385;50.822;4.324;2023-08-01T04:41:06;16.30;99.90
22436;DHT22;11385;50.822;4.324;2023-08-01T04:43:34;16.20;99.90
22436;DHT22;11385;50.822;4.324;2023-08-01T04:46:00;16.30;99.90
22436;DHT22;11385;50.822;4.324;2023-08-01T04:48:27;16.30;99.90
22436;DHT22;11385;50.822;4.324;2023-08-01T04:50:54;16.30;99.90
22436;DHT22;11385;50.822;4.324;2023-08-01T04:53:20;16.30;99.90
22436;DHT22;11385;50.822;4.324;2023-08-01T04:55:47;16.40;99.90
22436;DHT22;11385;50.822;4.324;2023-08-01T04:58:13;16.30;99.90
22436;DHT22;11385;50.822;4.324;2023-08-01T05:00:42;16.50;99.90
22436;DHT22;11385;50.822;4.324;2023-08-01T05:03:08;16.50;99.90
22436;DHT22;11385;50.822;4.324;2023-08-01T05:05:35;16.60;99.90
22436;DHT22;11385;50.822;4.324;2023-08-01T05:08:02;16.50;99.90
22436;DHT22;11385;50.822;4.324;2023-08-01T05:10:28;16.70;99.90
22436;DHT22;11385;50.822;4.324;2023-08-01T05:12:55;16.70;99.90
22436;DHT22;11385;50.822;4.324;2023-08-01T05:15:22;16.50;99.90
22436;DHT22;11385;50.822;4.324;2023-08-01T05:17:48;16.50;99.90
22436;DHT22;11385;50.822;4.324;2023-08-01T05:20:15;16.40;99.90
22436;DHT22;11385;50.822;4.324;2023-08-01T05:22:42;16.40;99.90
22436;DHT22;11385;50.822;4.324;2023-08-01T05:25:08;16.50;99.90
22436;DHT22;11385;50.822;4.324;2023-08-01T05:27:35;16.60;99.90
22436;DHT22;11385;50.822;4.324;2023-08-01T05:30:01;16.60;99.90
22436;DHT22;11385;50.822;4.324;2023-08-01T05:32:28;16.70;99.90
22436;DHT22;11385;50.822;4.324;2023-08-01T05:34:55;16.80;99.90
22436;DHT22;11385;50.822;4.324;2023-08-01T05:37:21;16.80;99.90
22436;DHT22;11385;50.822;4.324;2023-08-01T05:39:48;16.90;99.90
22436;DHT22;11385;50.822;4.324;2023-08-01T05:42:14;16.70;99.90
22436;DHT22;11385;50.822;4.324;2023-08-01T05:44:41;16.80;99.90
22436;DHT22;11385;50.822;4.324;2023-08-01T05:47:08;16.90;99.90
22436;DHT22;11385;50.822;4.324;2023-08-01T05:49:34;17.00;99.90
22436;DHT22;11385;50.822;4.324;2023-08-01T05:52:01;17.20;99.90
22436;DHT22;11385;50.822;4.324;2023-08-01T05:54:28;17.20;99.90
22436;DHT22;11385;50.822;4.324;2023-08-01T05:56:54;17.40;99.90
22436;DHT22;11385;50.822;4.324;2023-08-01T05:59:21;17.30;99.90
22436;DHT22;11385;50.822;4.324;2023-08-01T06:01:48;17.20;99.90
22436;DHT22;11385;50.822;4.324;2023-08-01T06:04:14;17.20;99.90
22436;DHT22;11385;50.822;4.324;2023-08-01T06:06:41;17.30;99.90
22436;DHT22;11385;50.822;4.324;2023-08-01T06:09:08;17.30;99.90
22436;DHT22;11385;50.822;4.324;2023-08-01T06:11:34;17.20;99.90
22436;DHT22;11385;50.822;4.324;2023-08-01T06:14:01;17.20;99.90
22436;DHT22;11385;50.822;4.324;2023-08-01T06:16:28;17.10;99.90
22436;DHT22;11385;50.822;4.324;2023-08-01T06:18:55;17.10;99.90
22436;DHT22;11385;50.822;4.324;2023-08-01T06:21:22;17.10;99.90
22436;DHT22;11385;50.822;4.324;2023-08-01T06:23:51;17.10;99.90
22436;DHT22;11385;50.822;4.324;2023-08-01T06:26:17;17.30;99.90
22436;DHT22;11385;50.822;4.324;2023-08-01T06:28:44;17.30;99.90
22436;DHT22;11385;50.822;4.324;2023-08-01T06:31:10;17.40;99.90
22436;DHT22;11385;50.822;4.324;2023-08-01T06:33:37;17.50;99.90
22436;DHT22;11385;50.822;4.324;2023-08-01T06:36:05;17.60;99.90
22436;DHT22;11385;50.822;4.324;2023-08-01T06:38:32;17.50;99.90
22436;DHT22;11385;50.822;4.324;2023-08-01T06:40:58;17.30;99.90
22436;DHT22;11385;50.822;4.324;2023-08-01T06:43:25;17.30;99.90
22436;DHT22;11385;50.822;4.324;2023-08-01T06:45:51;17.30;99.90
22436;DHT22;11385;50.822;4.324;2023-08-01T06:48:18;17.20;99.90
22436;DHT22;11385;50.822;4.324;2023-08-01T06:50:45;17.30;99.90
22436;DHT22;11385;50.822;4.324;2023-08-01T06:53:11;17.40;99.90
22436;DHT22;11385;50.822;4.324;2023-08-01T06:55:38;17.40;99.90
22436;DHT22;11385;50.822;4.324;2023-08-01T06:58:05;17.30;99.90
22436;DHT22;11385;50.822;4.324;2023-08-01T07:00:32;17.40;99.90
22436;DHT22;11385;50.822;4.324;2023-08-01T07:02:59;17.60;99.90
22436;DHT22;11385;50.822;4.324;2023-08-01T07:05:25;17.70;99.90
22436;DHT22;11385;50.822;4.324;2023-08-01T07:07:52;17.80;99.90
22436;DHT22;11385;50.822;4.324;2023-08-01T07:10:18;18.00;99.90
22436;DHT22;11385;50.822;4.324;2023-08-01T07:12:46;18.20;99.90
22436;DHT22;11385;50.822;4.324;2023-08-01T07:15:12;18.30;99.90
22436;DHT22;11385;50.822;4.324;2023-08-01T07:17:39;18.30;99.90
22436;DHT22;11385;50.822;4.324;2023-08-01T07:20:06;18.30;99.90
22436;DHT22;11385;50.822;4.324;2023-08-01T07:22:33;18.40;99.90
22436;DHT22;11385;50.822;4.324;2023-08-01T07:24:59;18.50;99.90
22436;DHT22;11385;50.822;4.324;2023-08-01T07:27:26;18.50;99.90
22436;DHT22;11385;50.822;4.324;2023-08-01T07:29:53;18.40;99.90
22436;DHT22;11385;50.822;4.324;2023-08-01T07:32:19;18.30;99.90
22436;DHT22;11385;50.822;4.324;2023-08-01T07:34:46;18.40;99.90
22436;DHT22;11385;50.822;4.324;2023-08-01T07:37:13;18.50;99.90
22436;DHT22;11385;50.822;4.324;2023-08-01T07:39:39;18.50;99.90
22436;DHT22;11385;50.822;4.324;2023-08-01T07:42:06;18.40;99.90
22436;DHT22;11385;50.822;4.324;2023-08-01T07:44:33;18.40;99.90
22436;DHT22;11385;50.822;4.324;2023-08-01T07:46:59;18.30;99.90
22436;DHT22;11385;50.822;4.324;2023-08-01T07:49:26;18.20;99.90
22436;DHT22;11385;50.822;4.324;2023-08-01T07:51:53;18.10;99.90
22436;DHT22;11385;50.822;4.324;2023-08-01T07:54:19;18.30;99.90
22436;DHT22;11385;50.822;4.324;2023-08-01T07:56:46;18.20;99.90
22436;DHT22;11385;50.822;4.324;2023-08-01T07:59:14;18.30;99.90
22436;DHT22;11385;50.822;4.324;2023-08-01T08:01:42;18.10;99.90
22436;DHT22;11385;50.822;4.324;2023-08-01T08:04:08;18.10;99.90
22436;DHT22;11385;50.822;4.324;2023-08-01T08:06:35;18.20;99.90
22436;DHT22;11385;50.822;4.324;2023-08-01T08:09:02;18.30;99.90
22436;DHT22;11385;50.822;4.324;2023-08-01T08:11:29;18.40;99.90
22436;DHT22;11385;50.822;4.324;2023-08-01T08:13:55;18.50;99.90
22436;DHT22;11385;50.822;4.324;2023-08-01T08:16:22;18.70;99.90
22436;DHT22;11385;50.822;4.324;2023-08-01T08:18:49;18.80;99.90
22436;DHT22;11385;50.822;4.324;2023-08-01T08:21:16;18.70;99.90
22436;DHT22;11385;50.822;4.324;2023-08-01T08:23:42;18.60;99.90
22436;DHT22;11385;50.822;4.324;2023-08-01T08:26:09;18.60;99.90
22436;DHT22;11385;50.822;4.324;2023-08-01T08:28:36;18.80;99.90
22436;DHT22;11385;50.822;4.324;2023-08-01T08:31:03;18.70;99.90
22436;DHT22;11385;50.822;4.324;2023-08-01T08:33:31;18.70;99.90
22436;DHT22;11385;50.822;4.324;2023-08-01T08:35:57;18.80;99.90
22436;DHT22;11385;50.822;4.324;2023-08-01T08:38:24;19.10;99.90
22436;DHT22;11385;50.822;4.324;2023-08-01T08:41:02;19.10;99.90
22436;DHT22;11385;50.822;4.324;2023-08-01T08:43:29;19.30;99.90
22436;DHT22;11385;50.822;4.324;2023-08-01T08:45:57;19.20;99.90
22436;DHT22;11385;50.822;4.324;2023-08-01T08:48:26;19.30;99.90
22436;DHT22;11385;50.822;4.324;2023-08-01T08:50:56;19.40;99.90
22436;DHT22;11385;50.822;4.324;2023-08-01T08:53:23;19.40;99.90
22436;DHT22;11385;50.822;4.324;2023-08-01T08:55:50;19.40;99.90
22436;DHT22;11385;50.822;4.324;2023-08-01T08:58:17;19.50;99.90
22436;DHT22;11385;50.822;4.324;2023-08-01T09:00:44;19.40;99.90
22436;DHT22;11385;50.822;4.324;2023-08-01T09:03:11;19.20;99.90
22436;DHT22;11385;50.822;4.324;2023-08-01T09:05:44;19.30;99.90
22436;DHT22;11385;50.822;4.324;2023-08-01T09:08:15;19.40;99.90
22436;DHT22;11385;50.822;4.324;2023-08-01T09:10:39;19.40;99.90
22436;DHT22;11385;50.822;4.324;2023-08-01T09:13:07;19.50;99.90
22436;DHT22;11385;50.822;4.324;2023-08-01T09:15:35;19.70;99.90
22436;DHT22;11385;50.822;4.324;2023-08-01T09:18:06;19.80;99.90
22436;DHT22;11385;50.822;4.324;2023-08-01T09:20:40;19.90;99.90
22436;DHT22;11385;50.822;4.324;2023-08-01T09:23:09;20.00;99.90
22436;DHT22;11385;50.822;4.324;2023-08-01T09:25:37;20.30;99.90
22436;DHT22;11385;50.822;4.324;2023-08-01T09:30:46;20.50;99.90
22436;DHT22;11385;50.822;4.324;2023-08-01T09:33:12;20.60;99.90
22436;DHT22;11385;50.822;4.324;2023-08-01T09:35:39;20.60;99.90
22436;DHT22;11385;50.822;4.324;2023-08-01T09:38:06;20.50;99.90
22436;DHT22;11385;50.822;4.324;2023-08-01T09:40:37;20.30;99.90
22436;DHT22;11385;50.822;4.324;2023-08-01T09:43:04;20.40;99.90
22436;DHT22;11385;50.822;4.324;2023-08-01T09:45:31;20.30;99.90
22436;DHT22;11385;50.822;4.324;2023-08-01T09:47:58;19.90;99.90
22436;DHT22;11385;50.822;4.324;2023-08-01T09:50:24;19.80;99.90
22436;DHT22;11385;50.822;4.324;2023-08-01T09:52:51;19.90;99.90
22436;DHT22;11385;50.822;4.324;2023-08-01T09:55:25;20.20;99.90
22436;DHT22;11385;50.822;4.324;2023-08-01T09:57:51;20.30;99.90
22436;DHT22;11385;50.822;4.324;2023-08-01T10:00:19;20.30;99.90
22436;DHT22;11385;50.822;4.324;2023-08-01T10:02:46;20.10;99.90
22436;DHT22;11385;50.822;4.324;2023-08-01T10:05:14;20.10;99.90
22436;DHT22;11385;50.822;4.324;2023-08-01T10:07:43;20.10;99.90
22436;DHT22;11385;50.822;4.324;2023-08-01T10:10:12;20.30;99.90
22436;DHT22;11385;50.822;4.324;2023-08-01T10:12:39;20.30;99.90
22436;DHT22;11385;50.822;4.324;2023-08-01T10:15:08;20.40;99.90
22436;DHT22;11385;50.822;4.324;2023-08-01T10:17:35;20.30;99.90
22436;DHT22;11385;50.822;4.324;2023-08-01T10:20:03;20.30;99.90
22436;DHT22;11385;50.822;4.324;2023-08-01T10:22:31;20.60;99.90
22436;DHT22;11385;50.822;4.324;2023-08-01T10:24:58;20.80;99.90
22436;DHT22;11385;50.822;4.324;2023-08-01T10:27:25;20.80;99.90
22436;DHT22;11385;50.822;4.324;2023-08-01T10:30:00;21.00;99.90
22436;DHT22;11385;50.822;4.324;2023-08-01T10:32:31;21.40;99.90
22436;DHT22;11385;50.822;4.324;2023-08-01T10:34:59;21.40;99.90
22436;DHT22;11385;50.822;4.324;2023-08-01T10:37:26;21.70;99.90
22436;DHT22;11385;50.822;4.324;2023-08-01T10:39:58;21.80;99.90
22436;DHT22;11385;50.822;4.324;2023-08-01T10:42:36;21.60;99.90
22436;DHT22;11385;50.822;4.324;2023-08-01T10:44:54;21.50;99.90
22436;DHT22;11385;50.822;4.324;2023-08-01T10:47:26;21.20;99.90
22436;DHT22;11385;50.822;4.324;2023-08-01T10:49:53;21.20;99.90
22436;DHT22;11385;50.822;4.324;2023-08-01T10:52:24;21.70;99.90
22436;DHT22;11385;50.822;4.324;2023-08-01T10:55:01;22.00;99.90
22436;DHT22;11385;50.822;4.324;2023-08-01T10:57:29;21.70;99.90
22436;DHT22;11385;50.822;4.324;2023-08-01T10:59:58;21.70;99.90
22436;DHT22;11385;50.822;4.324;2023-08-01T11:02:26;21.40;99.90
22436;DHT22;11385;50.822;4.324;2023-08-01T11:04:59;21.40;99.90
22436;DHT22;11385;50.822;4.324;2023-08-01T11:07:27;21.20;99.90
22436;DHT22;11385;50.822;4.324;2023-08-01T11:10:04;20.90;99.90
22436;DHT22;11385;50.822;4.324;2023-08-01T11:12:36;20.90;99.90
22436;DHT22;11385;50.822;4.324;2023-08-01T11:15:06;21.30;99.90
22436;DHT22;11385;50.822;4.324;2023-08-01T11:17:35;21.60;99.90
22436;DHT22;11385;50.822;4.324;2023-08-01T11:20:07;22.00;99.90
22436;DHT22;11385;50.822;4.324;2023-08-01T11:22:34;22.10;99.90
22436;DHT22;11385;50.822;4.324;2023-08-01T11:25:02;22.10;99.90
22436;DHT22;11385;50.822;4.324;2023-08-01T11:27:29;22.00;99.90
22436;DHT22;11385;50.822;4.324;2023-08-01T11:29:56;21.60;99.90
22436;DHT22;11385;50.822;4.324;2023-08-01T11:34:58;20.90;99.90
22436;DHT22;11385;50.822;4.324;2023-08-01T11:37:26;20.80;99.90
22436;DHT22;11385;50.822;4.324;2023-08-01T11:39:53;20.60;99.90
22436;DHT22;11385;50.822;4.324;2023-08-01T11:42:20;20.90;99.90
22436;DHT22;11385;50.822;4.324;2023-08-01T11:44:47;21.30;99.90
22436;DHT22;11385;50.822;4.324;2023-08-01T11:47:15;21.40;99.90
22436;DHT22;11385;50.822;4.324;2023-08-01T11:49:46;21.30;99.90
22436;DHT22;11385;50.822;4.324;2023-08-01T11:52:26;21.00;99.90
22436;DHT22;11385;50.822;4.324;2023-08-01T11:54:54;21.00;99.90
22436;DHT22;11385;50.822;4.324;2023-08-01T11:57:21;21.30;99.90
22436;DHT22;11385;50.822;4.324;2023-08-01T11:59:52;21.90;99.90
22436;DHT22;11385;50.822;4.324;2023-08-01T12:02:26;22.30;99.90
22436;DHT22;11385;50.822;4.324;2023-08-01T12:04:54;22.30;99.90
22436;DHT22;11385;50.822;4.324;2023-08-01T12:07:21;22.50;99.90
22436;DHT22;11385;50.822;4.324;2023-08-01T12:09:58;22.70;99.90
22436;DHT22;11385;50.822;4.324;2023-08-01T12:12:27;22.60;99.90
22436;DHT22;11385;50.822;4.324;2023-08-01T12:14:55;22.40;99.90
22436;DHT22;11385;50.822;4.324;2023-08-01T12:17:23;22.30;99.90
22436;DHT22;11385;50.822;4.324;2023-08-01T12:19:49;22.20;99.90
22436;DHT22;11385;50.822;4.324;2023-08-01T12:22:16;22.10;99.90
22436;DHT22;11385;50.822;4.324;2023-08-01T12:24:43;22.10;99.90
22436;DHT22;11385;50.822;4.324;2023-08-01T12:27:10;22.20;99.90
22436;DHT22;11385;50.822;4.324;2023-08-01T12:29:36;22.00;99.90
22436;DHT22;11385;50.822;4.324;2023-08-01T12:32:03;22.00;99.90
22436;DHT22;11385;50.822;4.324;2023-08-01T12:34:30;22.10;99.90
22436;DHT22;11385;50.822;4.324;2023-08-01T12:36:57;21.70;99.90
22436;DHT22;11385;50.822;4.324;2023-08-01T12:39:24;21.50;99.90
22436;DHT22;11385;50.822;4.324;2023-08-01T12:41:52;21.30;99.90
22436;DHT22;11385;50.822;4.324;2023-08-01T12:44:20;21.30;99.90
22436;DHT22;11385;50.822;4.324;2023-08-01T12:46:47;21.10;99.90
22436;DHT22;11385;50.822;4.324;2023-08-01T12:49:14;21.00;99.90
22436;DHT22;11385;50.822;4.324;2023-08-01T12:51:40;20.80;99.90
22436;DHT22;11385;50.822;4.324;2023-08-01T12:54:07;20.80;99.90
22436;DHT22;11385;50.822;4.324;2023-08-01T12:56:34;20.60;99.90
22436;DHT22;11385;50.822;4.324;2023-08-01T12:59:00;20.50;99.90
22436;DHT22;11385;50.822;4.324;2023-08-01T13:01:27;20.40;99.90
22436;DHT22;11385;50.822;4.324;2023-08-01T13:03:53;20.30;99.90
22436;DHT22;11385;50.822;4.324;2023-08-01T13:06:20;20.40;99.90
22436;DHT22;11385;50.822;4.324;2023-08-01T13:08:46;20.30;99.90
22436;DHT22;11385;50.822;4.324;2023-08-01T13:11:14;20.30;99.90
22436;DHT22;11385;50.822;4.324;2023-08-01T13:13:42;20.30;99.90
22436;DHT22;11385;50.822;4.324;2023-08-01T13:16:08;20.40;99.90
22436;DHT22;11385;50.822;4.324;2023-08-01T13:18:35;20.70;99.90
22436;DHT22;11385;50.822;4.324;2023-08-01T13:21:03;20.80;99.90
22436;DHT22;11385;50.822;4.324;2023-08-01T13:23:29;20.90;99.90
22436;DHT22;11385;50.822;4.324;2023-08-01T13:25:56;21.00;99.90
22436;DHT22;11385;50.822;4.324;2023-08-01T13:28:25;21.20;99.90
22436;DHT22;11385;50.822;4.324;2023-08-01T13:30:52;21.50;99.90
22436;DHT22;11385;50.822;4.324;2023-08-01T13:33:19;22.00;99.90
22436;DHT22;11385;50.822;4.324;2023-08-01T13:35:46;22.20;99.90
22436;DHT22;11385;50.822;4.324;2023-08-01T13:38:12;22.10;99.90
22436;DHT22;11385;50.822;4.324;2023-08-01T13:40:39;22.10;99.90
22436;DHT22;11385;50.822;4.324;2023-08-01T13:43:06;22.20;99.90
22436;DHT22;11385;50.822;4.324;2023-08-01T13:45:33;22.40;99.90
22436;DHT22;11385;50.822;4.324;2023-08-01T13:48:00;22.50;99.90
22436;DHT22;11385;50.822;4.324;2023-08-01T13:50:29;22.50;99.90
22436;DHT22;11385;50.822;4.324;2023-08-01T13:52:57;22.30;99.90
22436;DHT22;11385;50.822;4.324;2023-08-01T13:55:23;22.40;99.90
22436;DHT22;11385;50.822;4.324;2023-08-01T13:57:50;22.50;99.90
22436;DHT22;11385;50.822;4.324;2023-08-01T14:00:16;22.50;99.90
22436;DHT22;11385;50.822;4.324;2023-08-01T14:02:43;22.50;99.90
22436;DHT22;11385;50.822;4.324;2023-08-01T14:05:10;22.30;99.90
22436;DHT22;11385;50.822;4.324;2023-08-01T14:07:36;22.20;99.90
22436;DHT22;11385;50.822;4.324;2023-08-01T14:10:04;22.20;99.90
22436;DHT22;11385;50.822;4.324;2023-08-01T14:12:30;22.00;99.90
22436;DHT22;11385;50.822;4.324;2023-08-01T14:14:57;21.70;99.90
22436;DHT22;11385;50.822;4.324;2023-08-01T14:17:24;21.50;99.90
22436;DHT22;11385;50.822;4.324;2023-08-01T14:19:50;21.40;99.90
22436;DHT22;11385;50.822;4.324;2023-08-01T14:22:17;21.30;99.90
22436;DHT22;11385;50.822;4.324;2023-08-01T14:24:43;21.20;99.90
22436;DHT22;11385;50.822;4.324;2023-08-01T14:27:10;21.10;99.90
22436;DHT22;11385;50.822;4.324;2023-08-01T14:29:37;20.90;99.90
22436;DHT22;11385;50.822;4.324;2023-08-01T14:32:04;20.80;99.90
22436;DHT22;11385;50.822;4.324;2023-08-01T14:34:30;20.90;99.90
22436;DHT22;11385;50.822;4.324;2023-08-01T14:36:57;21.00;99.90
22436;DHT22;11385;50.822;4.324;2023-08-01T14:39:24;20.90;99.90
22436;DHT22;11385;50.822;4.324;2023-08-01T14:41:51;21.00;99.90
22436;DHT22;11385;50.822;4.324;2023-08-01T14:44:17;21.10;99.90
22436;DHT22;11385;50.822;4.324;2023-08-01T14:46:44;21.30;99.90
22436;DHT22;11385;50.822;4.324;2023-08-01T14:49:10;21.40;99.90
22436;DHT22;11385;50.822;4.324;2023-08-01T14:51:37;21.30;99.90
22436;DHT22;11385;50.822;4.324;2023-08-01T14:54:04;21.20;99.90
22436;DHT22;11385;50.822;4.324;2023-08-01T14:56:31;21.00;99.90
22436;DHT22;11385;50.822;4.324;2023-08-01T14:58:58;20.90;99.90
22436;DHT22;11385;50.822;4.324;2023-08-01T15:01:25;20.90;99.90
22436;DHT22;11385;50.822;4.324;2023-08-01T15:03:51;20.80;99.90
22436;DHT22;11385;50.822;4.324;2023-08-01T15:06:18;20.60;99.90
22436;DHT22;11385;50.822;4.324;2023-08-01T15:08:44;20.60;99.90
22436;DHT22;11385;50.822;4.324;2023-08-01T15:11:11;20.60;99.90
22436;DHT22;11385;50.822;4.324;2023-08-01T15:13:38;20.40;99.90
22436;DHT22;11385;50.822;4.324;2023-08-01T15:16:08;20.10;99.90
22436;DHT22;11385;50.822;4.324;2023-08-01T15:18:36;19.70;99.90
22436;DHT22;11385;50.822;4.324;2023-08-01T15:21:03;19.70;99.90
22436;DHT22;11385;50.822;4.324;2023-08-01T15:23:29;19.60;99.90
22436;DHT22;11385;50.822;4.324;2023-08-01T15:25:57;19.40;99.90
22436;DHT22;11385;50.822;4.324;2023-08-01T15:28:25;19.20;99.90
22436;DHT22;11385;50.822;4.324;2023-08-01T15:31:01;19.00;99.90
22436;DHT22;11385;50.822;4.324;2023-08-01T15:33:27;19.00;99.90
22436;DHT22;11385;50.822;4.324;2023-08-01T15:35:59;19.00;99.90